Time;durP1;ratioP1;P1;durP2;ratioP2;P2;SDS_P1;SDS_P2;PMS_P1;PMS_P2;Temp;Humidity;BMP_temperature;BMP_pressure;BME280_temperature;BME280_humidity;BME280_pressure;Samples;Min_cycle;Max_cycle;Signal;HPM_P1;HPM_P2
2024/02/02 00:01:17;;;;;;;46.78;9.25;;;;;;;3.03;100.00;102884.41;5008891;28;21588;-78
2024/02/02 00:03:42;;;;;;;31.33;8.27;;;;;;;3.12;100.00;102892.59;5032489;28;20034;-78
2024/02/02 00:06:08;;;;;;;36.25;8.07;;;;;;;3.03;100.00;102890.38;5024323;28;20041;-78
2024/02/02 00:08:33;;;;;;;41.90;7.80;;;;;;;3.04;100.00;102884.34;5024595;28;20041;-77
2024/02/02 00:10:59;;;;;;;35.40;8.18;;;;;;;3.12;100.00;102889.19;5009229;28;20034;-79
2024/02/02 00:13:25;;;;;;;37.83;8.18;;;;;;;3.04;100.00;102891.22;4995960;28;20037;-80
2024/02/02 00:15:52;;;;;;;21.52;7.50;;;;;;;2.99;100.00;102888.81;5012859;28;20508;-77
2024/02/02 00:18:18;;;;;;;36.67;8.88;;;;;;;3.05;100.00;102896.28;5008142;28;20034;-79
2024/02/02 00:20:44;;;;;;;26.77;7.65;;;;;;;3.10;100.00;102878.16;5011488;28;20025;-78
2024/02/02 00:23:09;;;;;;;29.90;7.20;;;;;;;3.07;100.00;102866.31;5010966;28;20064;-79
2024/02/02 00:25:34;;;;;;;37.40;8.90;;;;;;;3.06;100.00;102858.66;4990111;28;20049;-78
2024/02/02 00:28:00;;;;;;;27.30;6.95;;;;;;;3.08;100.00;102854.31;4994364;28;20033;-76
2024/02/02 00:30:26;;;;;;;30.27;8.52;;;;;;;3.08;100.00;102852.59;5010271;28;20038;-78
2024/02/02 00:32:51;;;;;;;39.97;9.07;;;;;;;3.07;100.00;102839.81;5005889;28;20034;-80
2024/02/02 00:35:17;;;;;;;37.30;8.55;;;;;;;3.03;100.00;102846.81;5030049;28;20061;-78
2024/02/02 00:37:44;;;;;;;39.00;8.18;;;;;;;3.16;100.00;102828.38;5006614;28;20034;-78
2024/02/02 00:40:10;;;;;;;41.13;10.10;;;;;;;3.13;100.00;102839.59;5011084;28;20029;-78
2024/02/02 00:42:36;;;;;;;33.55;7.47;;;;;;;3.27;100.00;102854.47;5026049;28;20026;-79
2024/02/02 00:45:02;;;;;;;32.83;7.78;;;;;;;3.29;100.00;102863.75;4996232;28;20035;-78
2024/02/02 00:47:27;;;;;;;49.78;9.73;;;;;;;3.26;100.00;102853.63;5013614;28;20574;-79
2024/02/02 00:49:53;;;;;;;37.25;9.32;;;;;;;3.22;100.00;102844.41;4991270;28;20052;-77
2024/02/02 00:52:18;;;;;;;36.97;8.43;;;;;;;3.22;100.00;102852.09;4992596;28;20026;-80
2024/02/02 00:54:44;;;;;;;34.47;7.75;;;;;;;3.38;100.00;102849.75;4991284;28;20068;-79
2024/02/02 00:57:12;;;;;;;33.88;9.48;;;;;;;3.26;100.00;102866.44;4996819;28;20029;-78
2024/02/02 00:59:38;;;;;;;32.17;8.30;;;;;;;3.22;100.00;102866.59;5010167;28;20041;-78
2024/02/02 01:02:03;;;;;;;34.55;7.28;;;;;;;3.21;100.00;102859.81;5027677;28;20064;-79
2024/02/02 01:04:29;;;;;;;27.80;7.68;;;;;;;3.28;100.00;102862.09;5010623;28;20076;-79
2024/02/02 01:06:54;;;;;;;33.20;8.73;;;;;;;3.35;100.00;102860.13;5008055;28;20052;-77
2024/02/02 01:09:20;;;;;;;33.47;8.20;;;;;;;3.39;100.00;102853.16;5005774;28;20046;-79
2024/02/02 01:11:46;;;;;;;33.00;7.75;;;;;;;3.45;100.00;102851.19;5007383;28;20034;-79
2024/02/02 01:14:11;;;;;;;30.38;9.15;;;;;;;3.36;100.00;102838.72;4985301;28;20030;-78
2024/02/02 01:16:37;;;;;;;28.05;7.95;;;;;;;3.39;100.00;102824.94;5015312;28;20037;-79
2024/02/02 01:19:04;;;;;;;38.80;7.45;;;;;;;3.50;100.00;102830.47;5005785;28;20034;-79
2024/02/02 01:21:30;;;;;;;33.70;7.53;;;;;;;3.40;100.00;102822.31;4993219;28;20041;-77
2024/02/02 01:23:55;;;;;;;30.25;6.97;;;;;;;3.38;100.00;102818.97;4991016;28;20057;-80
2024/02/02 01:26:21;;;;;;;44.88;9.05;;;;;;;3.48;100.00;102814.31;5005892;28;20038;-78
2024/02/02 01:28:46;;;;;;;41.22;8.45;;;;;;;3.54;100.00;102810.69;4989295;28;20068;-77
2024/02/02 01:31:12;;;;;;;31.33;7.28;;;;;;;3.55;100.00;102815.75;5006274;28;20034;-79
2024/02/02 01:33:37;;;;;;;40.30;7.97;;;;;;;3.44;100.00;102826.44;5003184;28;20044;-78
2024/02/02 01:36:02;;;;;;;44.78;9.25;;;;;;;3.45;100.00;102832.41;4992015;28;20497;-79
2024/02/02 01:38:28;;;;;;;34.47;8.25;;;;;;;3.45;100.00;102834.97;5011268;28;20497;-77
2024/02/02 01:40:53;;;;;;;36.53;7.70;;;;;;;3.43;100.00;102829.06;5004701;28;20030;-78
2024/02/02 01:43:19;;;;;;;36.38;7.43;;;;;;;3.54;100.00;102831.19;4988353;28;20042;-78
2024/02/02 01:45:44;;;;;;;36.95;7.57;;;;;;;3.56;100.00;102814.00;4992407;28;20468;-78
2024/02/02 01:48:10;;;;;;;27.85;7.18;;;;;;;3.51;100.00;102812.47;5006613;28;20233;-78
2024/02/02 01:50:36;;;;;;;41.83;7.75;;;;;;;3.45;100.00;102810.16;4991993;28;20488;-78
2024/02/02 01:53:01;;;;;;;35.33;8.32;;;;;;;3.54;100.00;102800.41;4994094;28;20497;-78
2024/02/02 01:55:27;;;;;;;33.55;8.50;;;;;;;3.44;100.00;102799.94;4991816;28;20092;-78
2024/02/02 01:57:53;;;;;;;29.77;7.97;;;;;;;3.38;100.00;102795.06;5009944;28;20069;-78
2024/02/02 02:00:18;;;;;;;36.80;8.90;;;;;;;3.45;100.00;102793.94;5010679;28;20022;-78
2024/02/02 02:02:44;;;;;;;31.35;8.82;;;;;;;3.40;100.00;102793.28;5025344;28;20050;-78
2024/02/02 02:05:09;;;;;;;43.10;8.77;;;;;;;3.31;100.00;102792.75;5011687;28;20125;-78
2024/02/02 02:07:35;;;;;;;32.28;7.70;;;;;;;3.27;100.00;102786.06;5006971;28;20049;-78
2024/02/02 02:10:01;;;;;;;30.00;7.88;;;;;;;3.33;100.00;102787.53;5010691;28;20041;-77
2024/02/02 02:12:27;;;;;;;40.72;9.43;;;;;;;3.30;100.00;102782.56;4992317;28;20034;-78
2024/02/02 02:14:52;;;;;;;34.05;8.10;;;;;;;3.35;100.00;102772.09;5011622;28;20030;-78
2024/02/02 02:17:17;;;;;;;34.85;8.25;;;;;;;3.43;100.00;102773.47;5010326;28;20080;-79
2024/02/02 02:19:46;;;;;;;36.33;8.90;;;;;;;3.41;100.00;102784.66;5010186;28;20034;-79
2024/02/02 02:22:12;;;;;;;38.70;9.27;;;;;;;3.36;100.00;102784.88;5009932;28;20042;-78
2024/02/02 02:24:37;;;;;;;29.40;7.78;;;;;;;3.50;100.00;102777.47;5027878;28;20093;-79
2024/02/02 02:27:03;;;;;;;39.88;8.82;;;;;;;3.54;100.00;102780.72;4998405;28;20052;-77
2024/02/02 02:29:29;;;;;;;39.47;10.00;;;;;;;3.44;100.00;102779.44;5010522;28;20038;-78
2024/02/02 02:31:55;;;;;;;37.63;8.70;;;;;;;3.50;100.00;102782.59;5012216;28;20034;-78
2024/02/02 02:34:27;;;;;;;27.95;7.85;;;;;;;3.60;100.00;102774.50;5008765;28;20038;-77
2024/02/02 02:36:54;;;;;;;33.83;8.07;;;;;;;3.55;100.00;102779.00;5013341;28;20029;-77
2024/02/02 02:39:20;;;;;;;26.88;7.95;;;;;;;3.46;100.00;102768.19;4995071;28;20045;-78
2024/02/02 02:41:45;;;;;;;29.05;8.65;;;;;;;3.55;100.00;102771.31;5013950;28;21314;-79
2024/02/02 02:44:12;;;;;;;40.25;9.20;;;;;;;3.59;100.00;102760.03;4995589;28;20042;-77
2024/02/02 02:46:39;;;;;;;35.17;8.07;;;;;;;3.58;100.00;102736.09;5011213;28;20037;-79
2024/02/02 02:49:04;;;;;;;31.35;7.20;;;;;;;3.60;100.00;102747.13;5010655;28;20125;-77
2024/02/02 02:51:30;;;;;;;42.47;7.80;;;;;;;3.75;100.00;102753.38;5010547;28;20152;-78
2024/02/02 02:53:55;;;;;;;34.72;7.68;;;;;;;3.78;100.00;102739.56;4994643;28;20080;-78
2024/02/02 02:56:21;;;;;;;37.97;7.40;;;;;;;3.70;100.00;102747.59;5030098;28;20048;-77
2024/02/02 02:58:46;;;;;;;32.67;7.25;;;;;;;3.73;100.00;102752.59;4996902;28;20091;-78
2024/02/02 03:01:12;;;;;;;31.38;7.78;;;;;;;3.77;100.00;102751.56;5010928;28;20037;-78
2024/02/02 03:03:37;;;;;;;35.95;8.18;;;;;;;3.70;100.00;102750.97;5029132;28;20038;-77
2024/02/02 03:06:03;;;;;;;38.53;7.15;;;;;;;3.74;100.00;102748.31;4994280;28;20037;-78
2024/02/02 03:08:28;;;;;;;26.23;7.93;;;;;;;3.79;100.00;102739.50;5008603;28;20042;-78
2024/02/02 03:10:54;;;;;;;29.92;6.88;;;;;;;3.87;100.00;102746.88;5010456;28;20025;-79
2024/02/02 03:13:19;;;;;;;24.92;7.60;;;;;;;3.82;100.00;102748.81;5009112;28;20472;-79
2024/02/02 03:15:45;;;;;;;25.85;7.82;;;;;;;4.03;100.00;102750.47;5012209;28;20083;-77
2024/02/02 03:18:12;;;;;;;39.58;7.88;;;;;;;3.95;100.00;102744.81;5008181;28;20596;-79
2024/02/02 03:20:37;;;;;;;34.88;7.55;;;;;;;3.85;100.00;102741.81;5009733;28;20030;-77
2024/02/02 03:23:03;;;;;;;38.63;7.88;;;;;;;3.84;100.00;102754.69;5025079;28;20034;-77
2024/02/02 03:25:29;;;;;;;36.05;7.47;;;;;;;3.97;100.00;102757.59;5006783;28;20064;-78
2024/02/02 03:27:54;;;;;;;27.02;6.50;;;;;;;3.93;100.00;102758.63;5009914;28;20034;-77
2024/02/02 03:30:20;;;;;;;23.55;6.97;;;;;;;3.83;100.00;102756.44;5009710;28;20532;-78
2024/02/02 03:32:45;;;;;;;51.55;7.63;;;;;;;3.88;100.00;102761.38;4992951;28;20046;-77
2024/02/02 03:35:11;;;;;;;40.55;6.10;;;;;;;3.97;100.00;102760.16;5004629;28;20034;-78
2024/02/02 03:37:36;;;;;;;41.30;8.73;;;;;;;4.06;100.00;102763.16;5007831;28;20432;-77
2024/02/02 03:40:04;;;;;;;39.33;6.68;;;;;;;3.94;100.00;102743.16;5026938;28;20100;-77
2024/02/02 03:42:29;;;;;;;44.50;7.05;;;;;;;4.08;100.00;102743.38;4991763;28;20500;-77
2024/02/02 03:44:55;;;;;;;27.55;6.60;;;;;;;3.98;100.00;102737.00;5025794;28;20042;-79
2024/02/02 03:47:21;;;;;;;45.80;7.88;;;;;;;4.01;100.00;102730.88;5008416;28;20041;-78
2024/02/02 03:49:46;;;;;;;36.97;7.20;;;;;;;3.92;100.00;102742.41;5028649;28;20042;-79
2024/02/02 03:52:11;;;;;;;36.08;8.85;;;;;;;3.90;100.00;102739.88;5006115;28;20031;-79
2024/02/02 03:54:37;;;;;;;72.55;24.63;;;;;;;3.92;100.00;102736.41;4992008;28;20030;-78
2024/02/02 03:57:03;;;;;;;48.67;14.38;;;;;;;3.95;100.00;102738.84;5007605;28;20030;-79
2024/02/02 03:59:28;;;;;;;30.55;6.90;;;;;;;4.05;100.00;102745.25;4994373;28;20050;-78
2024/02/02 04:01:54;;;;;;;35.22;5.63;;;;;;;4.06;100.00;102729.78;5007895;28;20069;-78
2024/02/02 04:04:20;;;;;;;32.75;9.05;;;;;;;4.07;100.00;102731.47;4992109;28;20057;-78
2024/02/02 04:06:46;;;;;;;24.67;7.82;;;;;;;4.15;100.00;102728.56;5019137;28;20030;-78
2024/02/02 04:09:12;;;;;;;43.53;6.50;;;;;;;4.19;100.00;102719.00;4990879;28;20045;-79
2024/02/02 04:11:37;;;;;;;31.80;6.22;;;;;;;4.02;100.00;102702.59;5013703;28;20026;-78
2024/02/02 04:14:03;;;;;;;22.63;6.88;;;;;;;4.02;100.00;102707.72;5002512;28;20520;-78
2024/02/02 04:16:28;;;;;;;34.20;7.25;;;;;;;4.07;100.00;102692.94;5009634;28;20411;-78
2024/02/02 04:18:54;;;;;;;31.77;6.80;;;;;;;3.97;100.00;102701.94;4987167;28;20412;-78
2024/02/02 04:21:19;;;;;;;29.65;6.55;;;;;;;3.96;100.00;102700.28;5008145;28;20056;-79
2024/02/02 04:23:45;;;;;;;32.50;6.80;;;;;;;4.02;100.00;102705.16;5008003;28;20034;-76
2024/02/02 04:26:10;;;;;;;26.65;6.40;;;;;;;4.10;100.00;102708.19;5008208;28;20053;-79
2024/02/02 04:28:36;;;;;;;26.15;7.28;;;;;;;4.10;100.00;102704.81;5006974;28;20045;-78
2024/02/02 04:31:01;;;;;;;26.50;7.53;;;;;;;4.00;100.00;102699.25;4990944;28;20030;-78
2024/02/02 04:33:27;;;;;;;32.17;7.25;;;;;;;4.03;100.00;102695.69;4990554;28;20044;-78
2024/02/02 04:35:52;;;;;;;25.67;6.88;;;;;;;3.97;100.00;102691.66;4996575;28;20049;-78
2024/02/02 04:38:18;;;;;;;26.05;7.75;;;;;;;4.08;100.00;102694.59;5005412;28;20042;-78
2024/02/02 04:40:46;;;;;;;33.00;7.03;;;;;;;4.01;100.00;102700.06;5009028;28;20068;-77
2024/02/02 04:43:12;;;;;;;30.98;6.82;;;;;;;3.98;100.00;102695.91;4987868;28;20034;-78
2024/02/02 04:45:38;;;;;;;43.13;8.00;;;;;;;3.96;100.00;102705.44;5002967;28;20041;-79
2024/02/02 04:48:05;;;;;;;26.38;7.03;;;;;;;3.94;100.00;102704.66;4987792;28;20030;-78
2024/02/02 04:50:30;;;;;;;30.45;6.68;;;;;;;3.91;100.00;102709.91;5008451;28;20066;-77
2024/02/02 04:52:55;;;;;;;33.53;8.27;;;;;;;4.04;100.00;102710.22;5007207;28;20617;-77
2024/02/02 04:55:21;;;;;;;33.08;6.65;;;;;;;3.93;100.00;102712.41;4997065;28;20038;-79
2024/02/02 04:57:46;;;;;;;29.48;8.77;;;;;;;3.96;100.00;102708.00;4991359;28;20397;-78
2024/02/02 05:00:13;;;;;;;33.00;6.72;;;;;;;3.94;100.00;102704.66;4989406;28;20060;-77
2024/02/02 05:02:38;;;;;;;33.85;9.23;;;;;;;3.92;100.00;102711.59;4992650;28;20032;-78
2024/02/02 05:05:05;;;;;;;38.95;9.18;;;;;;;3.88;100.00;102713.47;5004839;28;20030;-77
2024/02/02 05:07:31;;;;;;;42.70;8.50;;;;;;;3.90;100.00;102713.41;5009098;28;20042;-77
2024/02/02 05:09:57;;;;;;;32.20;7.45;;;;;;;3.87;100.00;102711.78;5009130;28;20030;-78
2024/02/02 05:12:22;;;;;;;35.08;7.43;;;;;;;3.95;100.00;102703.75;4992251;28;20405;-78
2024/02/02 05:14:49;;;;;;;35.97;7.35;;;;;;;3.88;100.00;102703.19;4989636;28;20037;-77
2024/02/02 05:17:14;;;;;;;41.47;9.10;;;;;;;4.04;100.00;102705.91;5006646;28;20046;-78
2024/02/02 05:19:40;;;;;;;28.88;7.85;;;;;;;4.06;100.00;102703.28;5008911;28;20030;-79
2024/02/02 05:22:05;;;;;;;39.75;7.93;;;;;;;3.98;100.00;102692.53;5009307;28;20029;-78
2024/02/02 05:24:31;;;;;;;43.88;9.30;;;;;;;3.92;100.00;102685.06;5021782;28;20030;-79
2024/02/02 05:26:56;;;;;;;37.00;8.90;;;;;;;4.00;100.00;102688.16;4993190;28;20377;-78
2024/02/02 05:29:22;;;;;;;36.22;8.52;;;;;;;3.95;100.00;102687.50;5007232;28;20088;-79
2024/02/02 05:31:47;;;;;;;38.70;8.90;;;;;;;3.91;100.00;102684.25;5014463;28;20037;-78
2024/02/02 05:34:13;;;;;;;40.50;11.15;;;;;;;3.98;100.00;102677.94;4993873;28;20056;-77
2024/02/02 05:36:38;;;;;;;43.72;10.05;;;;;;;4.05;100.00;102669.09;5012614;28;20034;-78
2024/02/02 05:39:04;;;;;;;50.65;10.27;;;;;;;4.04;100.00;102661.44;5010834;28;20481;-79
2024/02/02 05:41:29;;;;;;;38.28;8.98;;;;;;;3.92;100.00;102670.53;5012741;28;20448;-79
2024/02/02 05:43:55;;;;;;;41.25;9.27;;;;;;;4.02;100.00;102666.63;4995524;28;20062;-79
2024/02/02 05:46:20;;;;;;;48.88;10.75;;;;;;;3.91;100.00;102668.84;5010528;28;20052;-78
2024/02/02 05:48:46;;;;;;;41.08;9.43;;;;;;;3.92;100.00;102665.38;4999250;28;20030;-77
2024/02/02 05:51:11;;;;;;;37.22;9.77;;;;;;;3.90;100.00;102655.19;4996556;28;20030;-79
2024/02/02 05:53:36;;;;;;;45.88;10.82;;;;;;;4.02;100.00;102660.69;5010309;28;20037;-79
2024/02/02 05:56:02;;;;;;;26.92;7.57;;;;;;;3.97;100.00;102657.47;5012608;28;20500;-79
2024/02/02 05:58:28;;;;;;;32.45;9.13;;;;;;;3.84;100.00;102646.91;5030228;28;20493;-79
2024/02/02 06:00:53;;;;;;;36.78;8.98;;;;;;;3.86;100.00;102650.22;4994089;28;20541;-77
2024/02/02 06:03:20;;;;;;;34.17;9.13;;;;;;;3.90;100.00;102646.66;5010326;28;20101;-77
2024/02/02 06:05:46;;;;;;;31.35;7.22;;;;;;;3.96;100.00;102646.38;5011040;28;20030;-78
2024/02/02 06:08:13;;;;;;;34.78;9.60;;;;;;;3.96;100.00;102635.28;4992279;28;20069;-79
2024/02/02 06:10:40;;;;;;;39.03;7.95;;;;;;;3.98;100.00;102634.31;5014015;28;20044;-79
2024/02/02 06:13:06;;;;;;;30.50;8.20;;;;;;;3.91;100.00;102648.31;4995440;28;20089;-79
2024/02/02 06:15:31;;;;;;;36.90;7.32;;;;;;;4.01;100.00;102638.47;4990140;28;20038;-78
2024/02/02 06:17:57;;;;;;;36.78;8.52;;;;;;;3.92;100.00;102633.72;4995585;28;20057;-79
2024/02/02 06:20:22;;;;;;;33.35;7.45;;;;;;;3.89;100.00;102630.41;5009378;28;20030;-79
2024/02/02 06:22:48;;;;;;;41.85;8.52;;;;;;;3.90;100.00;102623.56;5011152;28;20038;-77
2024/02/02 06:25:13;;;;;;;27.48;6.93;;;;;;;4.07;100.00;102615.09;5010148;28;20108;-79
2024/02/02 06:27:39;;;;;;;21.27;5.68;;;;;;;3.98;100.00;102613.78;4994439;28;20779;-79
2024/02/02 06:30:07;;;;;;;39.72;7.18;;;;;;;3.85;100.00;102612.66;4994874;28;20037;-79
2024/02/02 06:32:35;;;;;;;26.83;6.75;;;;;;;3.96;100.00;102617.31;5026537;28;20029;-78
2024/02/02 06:35:01;;;;;;;26.45;7.03;;;;;;;3.94;100.00;102627.66;5024004;28;20026;-77
2024/02/02 06:37:27;;;;;;;24.45;6.80;;;;;;;4.07;100.00;102633.06;5018991;28;20037;-79
2024/02/02 06:39:53;;;;;;;29.00;5.60;;;;;;;3.99;100.00;102624.88;5009909;28;20032;-78
2024/02/02 06:42:24;;;;;;;37.17;6.30;;;;;;;3.95;100.00;102628.47;4994476;28;20026;-79
2024/02/02 06:44:51;;;;;;;28.25;7.60;;;;;;;3.99;100.00;102630.00;5009316;28;20038;-78
2024/02/02 06:47:20;;;;;;;31.45;6.22;;;;;;;3.92;100.00;102641.44;5010663;28;20029;-77
2024/02/02 06:49:45;;;;;;;35.50;6.25;;;;;;;3.83;100.00;102629.84;5005526;28;20061;-79
2024/02/02 06:52:13;;;;;;;19.52;5.93;;;;;;;3.88;100.00;102630.47;5010494;28;20025;-78
2024/02/02 06:54:39;;;;;;;28.63;6.10;;;;;;;3.88;100.00;102620.19;5008809;28;20035;-78
2024/02/02 06:57:04;;;;;;;29.60;5.22;;;;;;;3.77;100.00;102617.28;4990108;28;20033;-78
2024/02/02 06:59:30;;;;;;;19.30;4.80;;;;;;;3.95;100.00;102613.06;4992137;28;20044;-78
2024/02/02 07:01:56;;;;;;;33.42;5.00;;;;;;;3.82;100.00;102617.91;5005398;28;20033;-78
2024/02/02 07:04:22;;;;;;;29.15;6.22;;;;;;;3.79;100.00;102624.03;5005560;28;20480;-78
2024/02/02 07:06:48;;;;;;;34.20;7.65;;;;;;;3.73;100.00;102608.03;5007684;28;20044;-77
2024/02/02 07:09:20;;;;;;;23.90;5.13;;;;;;;3.76;100.00;102610.50;5012301;28;20530;-77
2024/02/02 07:11:58;;;;;;;27.70;4.90;;;;;;;3.73;100.00;102608.03;4954824;28;1069780;-78
2024/02/02 07:14:45;;;;;;;26.10;6.15;;;;;;;3.81;100.00;102608.56;5013488;28;20044;-78
2024/02/02 07:17:29;;;;;;;24.35;5.90;;;;;;;3.74;100.00;102613.13;5017404;28;20140;-79
2024/02/02 07:19:56;;;;;;;26.75;5.93;;;;;;;3.70;100.00;102609.03;5025523;28;20039;-79
2024/02/02 07:22:40;;;;;;;29.52;5.35;;;;;;;3.67;100.00;102615.13;5011506;28;20113;-78
2024/02/02 07:25:10;;;;;;;;;;;;;;;3.72;100.00;102614.91;5010454;28;20038;-77
2024/02/02 07:27:51;;;;;;;24.77;4.60;;;;;;;3.88;100.00;102615.06;5008379;28;22145;-77
2024/02/02 07:30:37;;;;;;;27.98;5.10;;;;;;;3.85;100.00;102613.47;5024556;28;20093;-78
2024/02/02 07:33:26;;;;;;;24.83;5.00;;;;;;;3.81;100.00;102611.13;5027231;28;20095;-78
2024/02/02 07:35:53;;;;;;;30.25;5.78;;;;;;;3.80;100.00;102617.16;5009025;28;20169;-78
2024/02/02 07:38:48;;;;;;;19.33;4.70;;;;;;;3.86;100.00;102619.44;5008775;28;20068;-78
2024/02/02 07:41:22;;;;;;;51.08;12.95;;;;;;;3.75;100.00;102621.63;5013253;28;20765;-79
2024/02/02 07:43:48;;;;;;;20.60;4.65;;;;;;;3.83;100.00;102619.59;5009499;28;20042;-80
2024/02/02 07:46:13;;;;;;;25.70;4.45;;;;;;;3.81;100.00;102618.81;5017671;28;20048;-78
2024/02/02 07:48:40;;;;;;;18.45;4.90;;;;;;;3.87;100.00;102618.56;5011119;28;20543;-79
2024/02/02 07:51:07;;;;;;;30.13;5.13;;;;;;;3.84;100.00;102621.25;5012840;28;20038;-78
2024/02/02 07:53:32;;;;;;;28.58;4.30;;;;;;;3.85;100.00;102622.91;5013342;28;20057;-78
2024/02/02 07:55:58;;;;;;;30.08;5.40;;;;;;;3.92;100.00;102631.16;5011994;28;20026;-79
2024/02/02 07:58:23;;;;;;;27.60;5.32;;;;;;;4.03;100.00;102636.66;5010711;28;20025;-78
2024/02/02 08:00:50;;;;;;;27.92;4.82;;;;;;;4.05;99.46;102627.16;5028359;28;20026;-78
2024/02/02 08:03:16;;;;;;;19.55;4.43;;;;;;;4.16;98.55;102631.81;5013974;28;20034;-77
2024/02/02 08:05:42;;;;;;;26.73;5.82;;;;;;;4.12;99.08;102622.59;5008534;28;20120;-78
2024/02/02 08:08:07;;;;;;;20.55;3.92;;;;;;;4.18;99.38;102623.16;5028289;28;20041;-78
2024/02/02 08:10:33;;;;;;;21.50;5.05;;;;;;;4.21;98.40;102622.16;5010035;28;20044;-76
2024/02/02 08:12:58;;;;;;;25.70;4.22;;;;;;;4.36;97.18;102618.91;4996776;28;20038;-78
2024/02/02 08:15:24;;;;;;;27.08;4.43;;;;;;;4.39;97.47;102618.75;5016360;28;20037;-79
2024/02/02 08:17:51;;;;;;;26.50;4.63;;;;;;;4.42;96.42;102623.72;4991658;28;20034;-79
2024/02/02 08:20:17;;;;;;;22.17;4.13;;;;;;;4.44;96.87;102616.78;5010504;28;20026;-78
2024/02/02 08:22:43;;;;;;;20.38;4.00;;;;;;;4.47;96.70;102619.22;5006398;28;20029;-78
2024/02/02 08:25:12;;;;;;;23.35;4.53;;;;;;;4.55;96.91;102618.84;5012041;28;20032;-79
2024/02/02 08:27:38;;;;;;;19.52;4.13;;;;;;;4.65;96.22;102609.84;5003738;28;20071;-77
2024/02/02 08:30:05;;;;;;;15.77;4.07;;;;;;;4.74;95.04;102615.44;5013852;28;20034;-79
2024/02/02 08:32:31;;;;;;;18.77;3.30;;;;;;;4.80;95.32;102609.97;4992816;28;20056;-77
2024/02/02 08:34:57;;;;;;;24.80;4.60;;;;;;;4.78;95.87;102610.03;4990662;28;20073;-77
2024/02/02 08:37:23;;;;;;;17.27;3.70;;;;;;;4.88;95.33;102618.19;5009362;28;20463;-78
2024/02/02 08:39:49;;;;;;;14.30;3.38;;;;;;;4.82;95.85;102609.03;5012072;28;20034;-78
2024/02/02 08:42:23;;;;;;;19.73;3.75;;;;;;;5.00;94.55;102607.28;5008760;28;20034;-78
2024/02/02 08:44:50;;;;;;;21.73;4.53;;;;;;;5.08;94.61;102601.75;5007006;28;20480;-79
2024/02/02 08:47:16;;;;;;;22.65;4.50;;;;;;;5.05;94.32;102592.47;5009381;28;20038;-79
2024/02/02 08:49:55;;;;;;;17.17;3.20;;;;;;;5.18;93.82;102592.69;5006248;28;20042;-78
2024/02/02 08:52:38;;;;;;;22.10;4.00;;;;;;;5.18;94.48;102594.41;5014889;28;20030;-78
2024/02/02 08:55:26;;;;;;;;;;;;;;;5.40;94.00;102587.25;5029339;28;20034;-78
2024/02/02 08:58:07;;;;;;;36.85;4.00;;;;;;;5.49;92.94;102590.28;5025942;28;20813;-79
2024/02/02 09:00:38;;;;;;;18.77;3.85;;;;;;;5.56;91.74;102591.66;4995425;28;20033;-77
2024/02/02 09:03:22;;;;;;;23.00;3.60;;;;;;;5.62;91.93;102589.56;5027937;28;20444;-79
2024/02/02 09:06:04;;;;;;;22.38;4.90;;;;;;;5.74;91.03;102587.25;5012434;28;20037;-77
2024/02/02 09:08:39;;;;;;;28.05;4.65;;;;;;;5.79;91.09;102596.41;4993421;28;20037;-78
2024/02/02 09:11:24;;;;;;;22.23;4.13;;;;;;;5.72;90.84;102592.47;5007570;28;20493;-79
2024/02/02 09:14:17;;;;;;;15.77;3.20;;;;;;;5.72;90.95;102589.09;5023712;28;20049;-79
2024/02/02 09:16:46;;;;;;;16.00;3.25;;;;;;;5.79;90.95;102596.41;5006968;28;20048;-79
2024/02/02 09:19:17;;;;;;;31.60;3.13;;;;;;;5.74;90.55;102590.66;5004154;28;20130;-78
2024/02/02 09:21:42;;;;;;;23.85;3.38;;;;;;;5.82;90.42;102585.97;5027127;28;20033;-79
2024/02/02 09:24:35;;;;;;;25.98;4.65;;;;;;;5.77;91.18;102594.84;5011749;28;20046;-79
2024/02/02 09:27:01;;;;;;;25.98;3.30;;;;;;;5.77;91.49;102585.34;5009514;28;20503;-79
2024/02/02 09:29:26;;;;;;;27.48;3.97;;;;;;;5.79;91.20;102588.69;5006810;28;20512;-78
2024/02/02 09:31:52;;;;;;;14.43;3.03;;;;;;;5.72;91.77;102591.66;4989471;28;20033;-77
2024/02/02 09:34:22;;;;;;;21.67;4.13;;;;;;;5.74;92.35;102589.84;5009477;28;20038;-79
2024/02/02 09:36:48;;;;;;;23.15;4.20;;;;;;;5.74;92.46;102597.56;4994384;28;20041;-76
2024/02/02 09:39:25;;;;;;;19.17;3.67;;;;;;;5.81;92.45;102601.47;5008883;28;20072;-78
2024/02/02 09:42:05;;;;;;;29.98;3.92;;;;;;;5.75;92.78;102596.66;4989771;28;20037;-80
2024/02/02 09:44:48;;;;;;;19.98;3.78;;;;;;;5.84;92.47;102603.91;5005750;28;20052;-79
2024/02/02 09:47:29;;;;;;;;;;;;;;;5.90;92.30;102597.59;4989425;28;20049;-79
2024/02/02 09:50:23;;;;;;;22.08;4.22;;;;;;;5.89;92.85;102595.91;5028997;28;20354;-78
2024/02/02 09:53:13;;;;;;;24.58;3.55;;;;;;;5.98;92.91;102587.75;4984200;28;20125;-79
2024/02/02 09:56:00;;;;;;;24.30;4.20;;;;;;;6.01;92.42;102595.31;5012545;28;20100;-79
2024/02/02 09:58:57;;;;;;;31.42;5.80;;;;;;;6.00;93.30;102594.47;5025902;28;20039;-77
2024/02/02 10:01:25;;;;;;;23.70;3.60;;;;;;;6.20;92.65;102595.16;5023062;28;20037;-78
2024/02/02 10:04:15;;;;;;;27.42;4.72;;;;;;;6.20;92.31;102593.41;5002680;28;20083;-78
2024/02/02 10:06:56;;;;;;;19.05;3.40;;;;;;;6.13;92.77;102591.25;5008989;28;20040;-77
2024/02/02 10:09:40;;;;;;;32.50;4.07;;;;;;;6.17;92.85;102593.53;5005484;28;20626;-78
2024/02/02 10:12:16;;;;;;;20.15;3.88;;;;;;;6.23;93.01;102587.22;5007798;28;20044;-79
2024/02/02 10:15:22;;;;;;;23.38;4.38;;;;;;;6.30;93.28;102585.97;5008910;28;20046;-77
2024/02/02 10:18:07;;;;;;;28.83;4.57;;;;;;;6.39;93.22;102593.22;4998831;28;20092;-79
2024/02/02 10:20:52;;;;;;;14.95;3.35;;;;;;;6.34;92.80;102605.50;5014295;28;20087;-78
2024/02/02 10:23:37;;;;;;;22.35;3.80;;;;;;;6.42;92.19;102599.94;4994781;28;20041;-80
2024/02/02 10:26:10;;;;;;;23.55;4.07;;;;;;;6.41;93.71;102603.44;4989939;28;20072;-79
2024/02/02 10:28:44;;;;;;;18.35;3.92;;;;;;;6.46;93.08;102592.88;5005556;28;20038;-79
2024/02/02 10:31:29;;;;;;;21.95;3.83;;;;;;;6.50;92.79;102589.19;5013560;28;20042;-78
2024/02/02 10:34:21;;;;;;;34.25;4.25;;;;;;;6.54;92.50;102588.13;4999632;28;20041;-77
2024/02/02 10:37:33;;;;;;;19.38;4.97;;;;;;;6.44;92.13;102595.53;5003592;28;20045;-78
2024/02/02 10:40:01;;;;;;;22.55;3.88;;;;;;;6.53;92.27;102582.13;4971643;28;20039;-77
2024/02/02 10:42:54;;;;;;;27.67;4.35;;;;;;;6.46;92.55;102588.56;4984534;28;20442;-79
2024/02/02 10:45:41;;;;;;;20.63;4.22;;;;;;;6.49;93.12;102584.97;5008566;28;20026;-76
2024/02/02 10:48:13;;;;;;;21.15;4.22;;;;;;;6.51;94.01;102576.22;5026032;28;20035;-79
2024/02/02 10:51:07;;;;;;;22.63;5.00;;;;;;;6.55;93.95;102574.31;5009767;28;20522;-77
2024/02/02 10:53:47;;;;;;;21.90;4.28;;;;;;;6.65;93.71;102570.31;5013673;28;20042;-77
2024/02/02 10:56:13;;;;;;;16.23;4.15;;;;;;;6.72;93.75;102573.34;5013461;28;20038;-78
2024/02/02 10:59:09;;;;;;;23.95;4.40;;;;;;;6.75;93.62;102573.19;5006359;28;20030;-78
2024/02/02 11:01:57;;;;;;;24.70;4.07;;;;;;;6.77;93.85;102569.59;5009840;28;20029;-78
2024/02/02 11:04:47;;;;;;;19.08;4.18;;;;;;;6.80;94.00;102566.03;5012334;28;20535;-78
2024/02/02 11:07:21;;;;;;;25.35;4.40;;;;;;;6.78;94.61;102568.69;5030315;28;20037;-79
2024/02/02 11:09:53;;;;;;;24.17;4.50;;;;;;;6.85;94.53;102568.34;5001534;28;20042;-78
2024/02/02 11:12:27;;;;;;;21.77;4.47;;;;;;;6.92;95.18;102560.16;4993805;28;20162;-79
2024/02/02 11:15:25;;;;;;;19.10;4.18;;;;;;;6.94;95.28;102550.56;5006862;28;20046;-78
2024/02/02 11:18:11;;;;;;;17.17;5.32;;;;;;;7.00;95.18;102555.38;5004724;28;20042;-79
2024/02/02 11:20:50;;;;;;;21.25;5.32;;;;;;;6.89;96.36;102551.75;5011454;28;20084;-78
2024/02/02 11:23:22;;;;;;;18.75;5.00;;;;;;;6.90;97.27;102537.97;5022804;28;20173;-79
2024/02/02 11:25:56;;;;;;;20.25;4.65;;;;;;;6.97;97.22;102542.66;5012879;28;20025;-78
2024/02/02 11:29:01;;;;;;;20.70;4.97;;;;;;;6.88;97.91;102535.47;5014614;28;20574;-78
2024/02/02 11:31:48;;;;;;;22.17;4.93;;;;;;;7.02;98.90;102525.16;4994285;28;20038;-77